Time;durP1;ratioP1;P1;durP2;ratioP2;P2;SDS_P1;SDS_P2;PMS_P1;PMS_P2;Temp;Humidity;BMP_temperature;BMP_pressure;BME280_temperature;BME280_humidity;BME280_pressure;Samples;Min_cycle;Max_cycle;Signal;HPM_P1;HPM_P2
2022/04/02 00:02:01;;;;;;;4.15;3.25;;;7.60;36.80;;;;;;5013983;28;20041;-77
2022/04/02 00:04:27;;;;;;;4.88;3.38;;;7.50;36.70;;;;;;5014160;28;20037;-78
2022/04/02 00:06:54;;;;;;;3.33;3.03;;;7.50;36.80;;;;;;4989151;28;20029;-78
2022/04/02 00:09:21;;;;;;;5.07;3.30;;;7.40;36.70;;;;;;5020035;28;20041;-78
2022/04/02 00:11:47;;;;;;;3.97;3.10;;;7.30;36.60;;;;;;4994754;28;20034;-78
2022/04/02 00:14:13;;;;;;;3.33;3.00;;;7.30;36.60;;;;;;5014790;28;20289;-77
2022/04/02 00:16:40;;;;;;;3.78;3.25;;;7.30;36.80;;;;;;5007107;28;20022;-77
2022/04/02 00:19:07;;;;;;;3.25;2.95;;;7.20;36.60;;;;;;5001061;28;20108;-77
2022/04/02 00:21:34;;;;;;;5.18;3.15;;;7.20;36.80;;;;;;5018403;28;20518;-77
2022/04/02 00:24:00;;;;;;;3.72;3.42;;;7.10;36.70;;;;;;5024438;28;20044;-78
2022/04/02 00:26:26;;;;;;;3.67;3.20;;;7.10;36.70;;;;;;5017659;28;20128;-78
2022/04/02 00:28:52;;;;;;;4.47;3.25;;;7.00;37.20;;;;;;5002008;28;20280;-77
2022/04/02 00:31:19;;;;;;;4.35;3.75;;;7.00;36.70;;;;;;5008771;28;20032;-78
2022/04/02 00:33:47;;;;;;;4.00;3.60;;;6.90;36.60;;;;;;4994815;28;20123;-78
2022/04/02 00:36:14;;;;;;;4.38;3.40;;;6.90;36.70;;;;;;5008357;28;20037;-77
2022/04/02 00:38:41;;;;;;;3.78;3.47;;;6.80;36.60;;;;;;5008891;28;20124;-78
2022/04/02 00:41:09;;;;;;;4.63;3.85;;;6.80;37.30;;;;;;4984197;28;20026;-77
2022/04/02 00:43:41;;;;;;;4.00;3.60;;;6.80;36.80;;;;;;4999403;28;20038;-77
2022/04/02 00:46:11;;;;;;;6.13;4.03;;;6.70;36.70;;;;;;4989230;28;20053;-77
2022/04/02 00:48:38;;;;;;;4.40;3.38;;;6.70;36.80;;;;;;5002609;28;20034;-78
2022/04/02 00:51:12;;;;;;;4.22;3.92;;;6.60;36.60;;;;;;5004216;28;20030;-77
2022/04/02 00:53:44;;;;;;;4.25;3.47;;;6.60;36.80;;;;;;4964592;28;20034;-77
2022/04/02 00:56:13;;;;;;;5.18;3.95;;;6.50;36.60;;;;;;4976894;28;20297;-79
2022/04/02 00:58:39;;;;;;;5.93;4.03;;;6.50;36.70;;;;;;5006236;28;20146;-77
2022/04/02 01:01:11;;;;;;;4.15;3.75;;;6.40;36.60;;;;;;5002942;28;20041;-77
2022/04/02 01:03:37;;;;;;;4.18;3.75;;;6.40;36.70;;;;;;4994304;28;20034;-78
2022/04/02 01:06:04;;;;;;;4.88;4.20;;;6.40;36.80;;;;;;4988787;28;20105;-77
2022/04/02 01:08:37;;;;;;;4.60;3.80;;;6.30;36.70;;;;;;4975670;28;20017;-78
2022/04/02 01:11:03;;;;;;;5.00;3.70;;;6.30;36.70;;;;;;5005366;28;20045;-78
2022/04/02 01:13:32;;;;;;;3.95;3.65;;;6.20;36.60;;;;;;5007909;28;20307;-78
2022/04/02 01:16:01;;;;;;;3.47;3.17;;;6.20;36.70;;;;;;5000470;28;20690;-78
2022/04/02 01:18:28;;;;;;;5.60;3.53;;;6.20;36.80;;;;;;4997933;28;20052;-77
2022/04/02 01:20:54;;;;;;;6.35;3.92;;;6.10;36.70;;;;;;4988304;28;20306;-77
2022/04/02 01:23:29;;;;;;;4.30;3.70;;;6.10;36.80;;;;;;4996688;28;20038;-77
2022/04/02 01:26:02;;;;;;;4.18;3.65;;;6.10;36.90;;;;;;5010722;28;20029;-77
2022/04/02 01:28:33;;;;;;;4.47;3.60;;;6.00;36.80;;;;;;4987906;28;20075;-78
2022/04/02 01:31:05;;;;;;;5.03;3.90;;;6.00;36.90;;;;;;4993603;28;20366;-78
2022/04/02 01:33:31;;;;;;;3.88;3.55;;;5.90;36.70;;;;;;5005000;28;20140;-77
2022/04/02 01:36:04;;;;;;;4.07;3.75;;;5.90;36.80;;;;;;4997255;28;20037;-78
2022/04/02 01:38:35;;;;;;;5.35;4.45;;;5.90;36.90;;;;;;5013770;28;20566;-77
2022/04/02 01:41:02;;;;;;;3.67;3.38;;;5.80;36.80;;;;;;5025969;28;20585;-77
2022/04/02 01:43:35;;;;;;;4.18;3.78;;;5.80;36.80;;;;;;5008033;28;20345;-77
2022/04/02 01:46:03;;;;;;;4.25;3.78;;;5.80;36.90;;;;;;5012388;28;20037;-77
2022/04/02 01:48:31;;;;;;;3.50;3.20;;;5.80;37.00;;;;;;5009614;28;20064;-78
2022/04/02 01:51:02;;;;;;;4.30;3.65;;;5.70;36.80;;;;;;4988008;28;20028;-78
2022/04/02 01:53:29;;;;;;;3.95;3.38;;;5.70;36.90;;;;;;5027187;28;20045;-77
2022/04/02 01:55:55;;;;;;;3.75;3.30;;;5.60;36.80;;;;;;5010509;28;20033;-77
2022/04/02 01:58:34;;;;;;;4.10;3.70;;;5.60;36.80;;;;;;5026698;28;20426;-77
2022/04/02 02:01:02;;;;;;;5.18;3.20;;;5.60;36.90;;;;;;5029001;28;20325;-77
2022/04/02 02:03:29;;;;;;;5.40;3.60;;;5.50;36.80;;;;;;5012057;28;20032;-77
2022/04/02 02:05:55;;;;;;;4.20;3.72;;;5.50;36.90;;;;;;5015975;28;20046;-77
2022/04/02 02:08:23;;;;;;;4.07;3.58;;;5.40;37.30;;;;;;5025777;28;20045;-77
2022/04/02 02:11:04;;;;;;;;;;;5.40;36.80;;;;;;4996983;28;20064;-77
2022/04/02 02:13:51;;;;;;;6.07;3.40;;;5.30;36.60;;;;;;5022831;28;19939;-77
2022/04/02 02:16:19;;;;;;;3.80;3.50;;;5.30;36.50;;;;;;5006710;28;20117;-77
2022/04/02 02:18:48;;;;;;;5.28;3.70;;;5.30;36.60;;;;;;5010178;28;20063;-77
2022/04/02 02:21:14;;;;;;;4.03;3.63;;;5.20;36.60;;;;;;5011276;28;20053;-77
2022/04/02 02:23:41;;;;;;;4.75;3.67;;;5.20;36.70;;;;;;5002540;28;20037;-77
2022/04/02 02:26:07;;;;;;;4.30;3.80;;;5.20;36.70;;;;;;5008200;28;20030;-77
2022/04/02 02:28:33;;;;;;;4.40;3.90;;;5.20;36.80;;;;;;5010566;28;20147;-76
2022/04/02 02:30:59;;;;;;;4.40;4.00;;;5.10;36.70;;;;;;5010027;28;20021;-77
2022/04/02 02:36:12;;;;;;;5.07;4.18;;;5.10;36.90;;;;;;5015251;28;20080;-77
2022/04/02 02:39:01;;;;;;;4.47;4.03;;;5.00;36.70;;;;;;5008401;28;20169;-77
2022/04/02 02:41:34;;;;;;;4.40;4.00;;;5.00;36.70;;;;;;5009911;28;20067;-77
2022/04/02 02:44:04;;;;;;;4.03;3.55;;;4.90;36.70;;;;;;5006898;28;20061;-77
2022/04/02 02:46:44;;;;;;;5.15;4.65;;;4.90;36.70;;;;;;4994378;28;20041;-77
2022/04/02 02:49:17;;;;;;;4.78;4.28;;;4.90;36.70;;;;;;5018372;28;20109;-77
2022/04/02 02:51:47;;;;;;;4.85;4.43;;;4.90;36.80;;;;;;5008232;28;20026;-76
2022/04/02 02:54:18;;;;;;;3.85;3.55;;;4.80;36.70;;;;;;5019231;28;20041;-77
2022/04/02 02:56:45;;;;;;;5.18;3.85;;;4.80;36.80;;;;;;5006238;28;20468;-78
2022/04/02 02:59:12;;;;;;;4.20;3.80;;;4.70;36.60;;;;;;4992615;28;20460;-77
2022/04/02 03:01:38;;;;;;;4.40;3.90;;;4.70;36.70;;;;;;4998211;28;20388;-77
2022/04/02 03:04:05;;;;;;;5.95;4.07;;;4.70;36.80;;;;;;5007908;28;20504;-78
2022/04/02 03:06:33;;;;;;;4.55;4.15;;;4.60;36.70;;;;;;5009348;28;20070;-78
2022/04/02 03:09:00;;;;;;;4.43;4.03;;;4.60;36.80;;;;;;5000605;28;20109;-77
2022/04/02 03:11:26;;;;;;;5.13;4.03;;;4.60;36.90;;;;;;5008825;28;20030;-77
2022/04/02 03:13:53;;;;;;;5.53;4.30;;;4.60;36.90;;;;;;5008718;28;20561;-77
2022/04/02 03:16:19;;;;;;;4.45;4.05;;;4.50;36.80;;;;;;5002681;28;20089;-76
2022/04/02 03:18:55;;;;;;;4.40;4.00;;;4.50;36.90;;;;;;5008781;28;20032;-77
2022/04/02 03:21:22;;;;;;;4.47;4.07;;;4.50;36.90;;;;;;5004960;28;20072;-77
2022/04/02 03:23:48;;;;;;;4.78;4.28;;;4.50;37.00;;;;;;5005097;28;20038;-78
2022/04/02 03:26:17;;;;;;;6.55;4.60;;;4.50;37.10;;;;;;5006476;28;20025;-77
2022/04/02 03:28:43;;;;;;;5.38;4.18;;;4.40;37.00;;;;;;5008382;28;20055;-77
2022/04/02 03:31:10;;;;;;;4.85;4.15;;;4.40;37.00;;;;;;5008122;28;20044;-78
2022/04/02 03:33:40;;;;;;;4.40;4.00;;;4.40;37.00;;;;;;5007803;28;20041;-78
2022/04/02 03:36:10;;;;;;;4.90;4.40;;;4.30;36.90;;;;;;5001380;28;20030;-78
2022/04/02 03:38:37;;;;;;;4.90;3.85;;;4.40;37.10;;;;;;5008011;28;20129;-78
2022/04/02 03:41:10;;;;;;;5.00;4.50;;;4.30;37.00;;;;;;5008480;28;20036;-79
2022/04/02 03:43:36;;;;;;;4.85;4.45;;;4.30;37.00;;;;;;5009219;28;20519;-78
2022/04/02 03:48:47;;;;;;;6.63;4.95;;;4.30;37.10;;;;;;5007958;28;20631;-77
2022/04/02 03:51:13;;;;;;;5.07;4.47;;;4.30;37.20;;;;;;4990619;28;20081;-78
2022/04/02 03:53:40;;;;;;;4.72;4.28;;;4.30;37.20;;;;;;5011641;28;20039;-79
2022/04/02 03:56:08;;;;;;;5.20;4.72;;;4.20;37.10;;;;;;5012810;28;20026;-78
2022/04/02 03:58:40;;;;;;;5.18;4.55;;;4.20;37.10;;;;;;5000874;28;20037;-78
2022/04/02 04:01:11;;;;;;;4.50;4.10;;;4.20;37.20;;;;;;5010617;28;20465;-79
2022/04/02 04:03:37;;;;;;;6.15;4.30;;;4.20;37.30;;;;;;5011773;28;20029;-78
2022/04/02 04:06:04;;;;;;;4.22;3.92;;;4.10;37.20;;;;;;4995983;28;20064;-78
2022/04/02 04:08:32;;;;;;;4.68;4.28;;;4.10;37.20;;;;;;5004682;28;20096;-78
2022/04/02 04:10:59;;;;;;;5.00;4.40;;;4.10;37.30;;;;;;4995681;28;20116;-78
2022/04/02 04:13:26;;;;;;;6.47;4.70;;;4.10;37.40;;;;;;5005663;28;21157;-77
2022/04/02 04:15:55;;;;;;;4.85;4.45;;;4.10;37.40;;;;;;5009966;28;20052;-77
2022/04/02 04:18:22;;;;;;;5.35;4.85;;;4.00;37.30;;;;;;4985231;28;20034;-77
2022/04/02 04:20:49;;;;;;;4.72;4.28;;;4.00;37.30;;;;;;5006391;28;20049;-77
2022/04/02 04:23:22;;;;;;;;;;;4.00;37.30;;;;;;4980240;28;20041;-77
2022/04/02 04:25:49;;;;;;;4.82;4.43;;;4.00;37.40;;;;;;5044500;28;20417;-77
2022/04/02 04:28:15;;;;;;;4.53;4.13;;;4.00;37.20;;;;;;5009180;28;20029;-77
2022/04/02 04:30:45;;;;;;;5.88;5.15;;;4.00;37.20;;;;;;5012168;28;20032;-77
2022/04/02 04:33:12;;;;;;;5.13;4.55;;;4.00;37.30;;;;;;5010792;28;20045;-77
2022/04/02 04:35:38;;;;;;;5.28;4.78;;;3.90;37.20;;;;;;5027809;28;20047;-76
2022/04/02 04:38:04;;;;;;;6.57;4.40;;;3.90;37.30;;;;;;5028152;28;20488;-76
2022/04/02 04:40:30;;;;;;;4.90;4.50;;;3.90;37.90;;;;;;5007873;28;20508;-77
2022/04/02 04:42:58;;;;;;;4.63;4.22;;;3.90;37.40;;;;;;5006110;28;20534;-76
2022/04/02 04:45:32;;;;;;;4.75;4.32;;;3.90;37.40;;;;;;5009857;28;20096;-77
2022/04/02 04:47:59;;;;;;;4.82;4.13;;;3.90;37.50;;;;;;5015889;28;20033;-77
2022/04/02 04:50:26;;;;;;;4.40;4.00;;;3.80;37.40;;;;;;5026354;28;20179;-77
2022/04/02 04:52:57;;;;;;;4.25;3.85;;;3.80;37.50;;;;;;5002710;28;20396;-77
2022/04/02 04:55:23;;;;;;;4.70;4.25;;;3.80;37.50;;;;;;5018835;28;20034;-77
2022/04/02 04:57:49;;;;;;;5.50;4.75;;;3.80;37.60;;;;;;5008211;28;20108;-76
2022/04/02 05:00:23;;;;;;;4.00;3.65;;;3.90;37.80;;;;;;5025675;28;20044;-77
2022/04/02 05:02:49;;;;;;;4.78;4.38;;;3.80;37.70;;;;;;5021009;28;20417;-76
2022/04/02 05:05:20;;;;;;;5.60;4.13;;;3.80;37.80;;;;;;5001360;28;20488;-77
2022/04/02 05:07:49;;;;;;;5.25;3.83;;;3.80;37.80;;;;;;5010525;28;20037;-77
2022/04/02 05:10:16;;;;;;;4.45;3.45;;;3.80;37.80;;;;;;5001247;28;20053;-75
2022/04/02 05:12:43;;;;;;;6.15;4.03;;;3.80;37.80;;;;;;5012114;28;20021;-78
2022/04/02 05:15:12;;;;;;;5.45;3.72;;;3.80;37.90;;;;;;5000405;28;20043;-77
2022/04/02 05:17:40;;;;;;;4.45;3.90;;;3.80;38.00;;;;;;5019321;28;20021;-77
2022/04/02 05:20:11;;;;;;;5.50;4.43;;;3.80;38.00;;;;;;4997815;28;20436;-77
2022/04/02 05:22:38;;;;;;;6.07;4.50;;;3.80;38.10;;;;;;5002558;28;20045;-77
2022/04/02 05:25:05;;;;;;;4.60;4.20;;;3.80;38.10;;;;;;5002998;28;20021;-78
2022/04/02 05:27:33;;;;;;;4.78;4.28;;;3.80;38.10;;;;;;5032259;28;20032;-77
2022/04/02 05:30:04;;;;;;;5.15;4.20;;;3.80;38.20;;;;;;5025586;28;20120;-77
2022/04/02 05:32:30;;;;;;;4.53;4.13;;;3.70;38.00;;;;;;5017871;28;20215;-77
2022/04/02 05:34:57;;;;;;;4.97;3.70;;;3.70;38.00;;;;;;5000104;28;20033;-76
2022/04/02 05:37:23;;;;;;;5.03;4.03;;;3.70;38.10;;;;;;5022915;28;20025;-76
2022/04/02 05:39:50;;;;;;;4.00;3.60;;;3.70;38.20;;;;;;5025856;28;20388;-76
2022/04/02 05:42:17;;;;;;;4.05;3.72;;;3.70;38.30;;;;;;5001849;28;20399;-77
2022/04/02 05:44:42;;;;;;;3.70;3.40;;;3.60;38.10;;;;;;5007419;28;20022;-76
2022/04/02 05:47:09;;;;;;;5.80;3.97;;;3.60;38.20;;;;;;5000983;28;20040;-77
2022/04/02 05:49:36;;;;;;;4.97;3.63;;;3.60;38.20;;;;;;5004938;28;20031;-77
2022/04/02 05:52:04;;;;;;;4.97;4.15;;;3.50;38.10;;;;;;5017365;28;20033;-74
2022/04/02 05:54:31;;;;;;;4.90;3.72;;;3.50;38.20;;;;;;5017240;28;20320;-74
2022/04/02 05:56:57;;;;;;;4.03;3.63;;;3.50;38.30;;;;;;5034662;28;20025;-74
2022/04/02 05:59:24;;;;;;;5.88;3.45;;;3.50;38.30;;;;;;5031640;28;20027;-74
2022/04/02 06:01:50;;;;;;;4.93;4.28;;;3.40;38.10;;;;;;5018108;28;20025;-75
2022/04/02 06:04:16;;;;;;;6.43;4.10;;;3.40;38.10;;;;;;5012326;28;20032;-75
2022/04/02 06:06:42;;;;;;;5.15;3.97;;;3.40;38.20;;;;;;5012695;28;20121;-75
2022/04/02 06:09:08;;;;;;;4.05;3.58;;;3.40;38.20;;;;;;4988543;28;20549;-77
2022/04/02 06:11:33;;;;;;;5.85;3.95;;;3.40;38.30;;;;;;5009555;28;20033;-77
2022/04/02 06:14:00;;;;;;;5.55;3.70;;;3.40;38.30;;;;;;5010434;28;20225;-77
2022/04/02 06:16:26;;;;;;;4.20;3.67;;;3.50;38.70;;;;;;5009171;28;20047;-75
2022/04/02 06:18:52;;;;;;;4.45;3.67;;;3.50;38.80;;;;;;5017530;28;20033;-75
2022/04/02 06:21:19;;;;;;;4.13;3.53;;;3.50;38.80;;;;;;5012590;28;20025;-76
2022/04/02 06:23:46;;;;;;;4.97;3.67;;;3.60;39.10;;;;;;5013355;28;20030;-76
2022/04/02 06:26:12;;;;;;;5.40;3.05;;;3.60;39.20;;;;;;5011160;28;20612;-77
2022/04/02 06:28:40;;;;;;;4.97;3.92;;;3.70;39.30;;;;;;5010687;28;20343;-76
2022/04/02 06:31:06;;;;;;;4.55;3.70;;;3.80;39.50;;;;;;5004203;28;20096;-78
2022/04/02 06:33:38;;;;;;;5.00;3.55;;;3.80;39.30;;;;;;5001489;28;20052;-76
2022/04/02 06:36:07;;;;;;;4.30;3.90;;;3.90;39.30;;;;;;5005976;28;20053;-76
2022/04/02 06:38:34;;;;;;;5.82;3.63;;;3.90;39.20;;;;;;4998536;28;20041;-77
2022/04/02 06:41:00;;;;;;;3.30;3.00;;;4.00;39.30;;;;;;5003054;28;20037;-77
2022/04/02 06:43:26;;;;;;;3.45;3.15;;;4.00;39.30;;;;;;5011821;28;20029;-77
2022/04/02 06:45:57;;;;;;;4.53;3.00;;;4.10;39.50;;;;;;4999400;28;20501;-77
2022/04/02 06:48:23;;;;;;;5.53;3.15;;;4.10;39.50;;;;;;5003647;28;20239;-76
2022/04/02 06:50:48;;;;;;;3.28;2.67;;;4.20;39.60;;;;;;5021458;28;20020;-76
2022/04/02 06:53:14;;;;;;;3.65;2.85;;;4.30;39.60;;;;;;5007383;28;20073;-77
2022/04/02 06:55:40;;;;;;;3.95;2.85;;;4.30;39.50;;;;;;5010010;28;20519;-76
2022/04/02 06:58:06;;;;;;;3.80;2.53;;;4.40;40.20;;;;;;5008473;28;20034;-75
2022/04/02 07:00:32;;;;;;;4.85;3.00;;;4.50;39.70;;;;;;5021563;28;20065;-77
2022/04/02 07:02:58;;;;;;;3.42;3.10;;;4.60;39.80;;;;;;5014809;28;20076;-75
2022/04/02 07:05:24;;;;;;;5.60;3.00;;;4.70;39.80;;;;;;5008567;28;20033;-77
2022/04/02 07:07:50;;;;;;;3.38;2.55;;;4.80;39.80;;;;;;5008844;28;20481;-75
2022/04/02 07:10:16;;;;;;;2.92;2.58;;;4.90;39.90;;;;;;5000115;28;20030;-77
2022/04/02 07:12:42;;;;;;;5.43;2.25;;;5.10;40.20;;;;;;4987567;28;20064;-77
2022/04/02 07:15:09;;;;;;;3.55;2.28;;;5.20;40.20;;;;;;5004385;28;20037;-76
2022/04/02 07:17:35;;;;;;;2.28;2.08;;;5.40;40.40;;;;;;5000614;28;20025;-76
2022/04/02 07:20:03;;;;;;;3.17;2.05;;;5.60;41.10;;;;;;5009171;28;20057;-77
2022/04/02 07:22:28;;;;;;;2.95;2.13;;;5.70;40.50;;;;;;5001632;28;20022;-77
2022/04/02 07:24:57;;;;;;;3.92;2.40;;;5.90;40.60;;;;;;5014483;28;20079;-77
2022/04/02 07:27:31;;;;;;;2.35;1.90;;;6.10;40.70;;;;;;5020659;28;20030;-76
2022/04/02 07:30:00;;;;;;;2.25;2.05;;;6.20;40.70;;;;;;5020636;28;20106;-77
2022/04/02 07:32:26;;;;;;;2.10;1.90;;;6.40;40.70;;;;;;5020341;28;20041;-76
2022/04/02 07:34:52;;;;;;;1.70;1.50;;;6.50;40.70;;;;;;5014763;28;20511;-77
2022/04/02 07:37:56;;;;;;;2.47;1.77;;;6.60;40.70;;;;;;4990726;28;20031;-78
2022/04/02 07:40:28;;;;;;;4.00;2.05;;;6.80;41.10;;;;;;5016750;28;20072;-80
2022/04/02 07:43:20;;;;;;;3.47;2.13;;;7.00;41.10;;;;;;5011943;28;20284;-79
2022/04/02 07:46:07;;;;;;;2.90;1.58;;;7.20;41.30;;;;;;5029222;28;20029;-79
2022/04/02 07:48:36;;;;;;;3.53;1.67;;;7.30;41.10;;;;;;5028430;28;20021;-79
2022/04/02 07:51:09;;;;;;;2.67;1.50;;;7.50;41.10;;;;;;5025930;28;20450;-80
2022/04/02 07:53:40;;;;;;;;;;;7.70;41.20;;;;;;5029578;28;20393;-79
2022/04/02 07:56:07;;;;;;;2.03;1.50;;;7.80;41.00;;;;;;5024876;28;20473;-81
2022/04/02 07:58:38;;;;;;;4.50;1.60;;;8.00;40.90;;;;;;5011835;28;20619;-80
2022/04/02 08:01:05;;;;;;;1.40;1.25;;;8.00;40.90;;;;;;5026943;28;20034;-81
2022/04/02 08:03:36;;;;;;;2.30;1.90;;;7.90;40.80;;;;;;5035580;28;20043;-80
2022/04/02 08:06:04;;;;;;;1.98;1.60;;;8.00;41.10;;;;;;5031708;28;20033;-81
2022/04/02 08:08:31;;;;;;;2.05;1.50;;;8.00;41.20;;;;;;5025502;28;20106;-80
2022/04/02 08:10:57;;;;;;;2.67;1.60;;;8.10;41.40;;;;;;5032585;28;20060;-78
2022/04/02 08:13:23;;;;;;;2.80;1.30;;;8.10;41.40;;;;;;5027790;28;20037;-77
2022/04/02 08:15:56;;;;;;;3.03;1.90;;;8.20;41.60;;;;;;5011114;28;20033;-80
2022/04/02 08:18:28;;;;;;;3.92;2.47;;;8.20;41.50;;;;;;5023503;28;20120;-79
2022/04/02 08:20:54;;;;;;;2.67;1.55;;;8.30;41.70;;;;;;5029609;28;20029;-79
2022/04/02 08:23:24;;;;;;;3.78;1.90;;;8.30;41.70;;;;;;4993473;28;20087;-77
2022/04/02 08:26:15;;;;;;;2.20;2.00;;;8.30;41.70;;;;;;5035602;28;20037;-78
2022/04/02 08:28:46;;;;;;;1.90;1.60;;;8.30;41.70;;;;;;5028581;28;20064;-80
2022/04/02 08:31:29;;;;;;;2.10;1.65;;;8.40;41.90;;;;;;5026141;28;20097;-80
2022/04/02 08:34:12;;;;;;;2.15;1.60;;;8.40;41.80;;;;;;5032777;28;20178;-78
2022/04/02 08:36:45;;;;;;;;;;;8.40;41.70;;;;;;5023370;28;20078;-79
2022/04/02 08:39:17;;;;;;;3.60;1.33;;;8.50;41.80;;;;;;5020975;28;19921;-80
2022/04/02 08:42:10;;;;;;;1.83;1.40;;;8.50;41.70;;;;;;5031111;28;20038;-81
2022/04/02 08:45:05;;;;;;;1.58;1.23;;;8.50;41.60;;;;;;5033774;28;20069;-79
2022/04/02 08:47:55;;;;;;;1.42;1.33;;;8.60;41.70;;;;;;5024716;28;20061;-81
2022/04/02 08:50:31;;;;;;;2.05;1.70;;;8.60;41.60;;;;;;5019252;28;20093;-80
2022/04/02 08:53:14;;;;;;;2.15;1.30;;;8.70;41.70;;;;;;5034418;28;20033;-81
2022/04/02 08:56:01;;;;;;;2.25;1.50;;;8.70;41.60;;;;;;5020607;28;20091;-81
2022/04/02 08:58:58;;;;;;;2.78;1.60;;;8.80;41.60;;;;;;5025071;28;20080;-79
2022/04/02 09:02:03;;;;;;;2.58;1.58;;;8.80;41.60;;;;;;5024874;28;20098;-80
2022/04/02 09:04:47;;;;;;;1.90;1.67;;;8.80;41.50;;;;;;5012819;28;20505;-81
2022/04/02 09:07:22;;;;;;;4.00;1.60;;;8.90;41.60;;;;;;5029350;28;20171;-81
2022/04/02 09:10:42;;;;;;;1.75;1.50;;;8.90;41.50;;;;;;5021014;28;20237;-80
2022/04/02 09:13:36;;;;;;;2.00;1.70;;;9.00;41.60;;;;;;4983378;28;20037;-81
2022/04/02 09:16:04;;;;;;;;;;;9.10;41.60;;;;;;5017165;28;20037;-80
2022/04/02 09:19:04;;;;;;;2.83;1.50;;;9.20;41.60;;;;;;5015316;28;19968;-80
2022/04/02 09:21:49;;;;;;;5.40;2.35;;;9.30;41.60;;;;;;5032882;28;20121;-81
2022/04/02 09:24:37;;;;;;;3.65;2.25;;;9.40;41.50;;;;;;5019247;28;20400;-81
2022/04/02 09:27:24;;;;;;;3.10;2.33;;;9.60;41.60;;;;;;5021890;28;20355;-82
2022/04/02 09:30:02;;;;;;;3.45;2.50;;;9.70;41.60;;;;;;5030049;28;20056;-77
2022/04/02 09:32:40;;;;;;;4.70;3.00;;;9.80;41.60;;;;;;4986275;28;20501;-81
2022/04/02 09:35:30;;;;;;;4.25;2.30;;;9.80;41.40;;;;;;5013951;28;20046;-81
2022/04/02 09:38:30;;;;;;;3.97;2.60;;;9.90;41.40;;;;;;5021840;28;20051;-80
2022/04/02 09:41:13;;;;;;;4.78;2.65;;;9.90;41.30;;;;;;5028810;28;20120;-81
2022/04/02 09:43:56;;;;;;;3.53;3.10;;;9.90;41.20;;;;;;5028363;28;20037;-81
2022/04/02 09:46:53;;;;;;;4.03;2.95;;;10.00;41.40;;;;;;5020832;28;20295;-81
2022/04/02 09:49:28;;;;;;;3.60;2.55;;;10.00;41.40;;;;;;5026570;28;20552;-80
2022/04/02 09:52:03;;;;;;;5.70;3.35;;;10.00;41.30;;;;;;5002405;28;20048;-80
2022/04/02 09:55:01;;;;;;;6.55;2.95;;;10.00;41.20;;;;;;5030536;28;20041;-81
2022/04/02 09:57:59;;;;;;;5.35;3.20;;;10.10;41.40;;;;;;5002591;28;20045;-80
2022/04/02 10:00:37;;;;;;;4.03;3.42;;;10.10;41.30;;;;;;5017214;28;20033;-80
2022/04/02 10:03:06;;;;;;;4.93;3.63;;;10.20;41.50;;;;;;5014764;28;20017;-80
2022/04/02 10:05:45;;;;;;;4.18;3.30;;;10.20;41.40;;;;;;5018769;28;20041;-80
2022/04/02 10:08:38;;;;;;;8.48;3.65;;;10.20;41.20;;;;;;5020167;28;20034;-80
2022/04/02 10:11:08;;;;;;;5.47;4.25;;;10.30;41.30;;;;;;4996616;28;20452;-80
2022/04/02 10:13:35;;;;;;;5.80;3.92;;;10.40;41.40;;;;;;5017978;28;20140;-77
2022/04/02 10:16:03;;;;;;;5.20;4.43;;;10.40;41.30;;;;;;5014571;28;20037;-81
2022/04/02 10:18:34;;;;;;;6.05;4.20;;;10.40;41.20;;;;;;5028567;28;20388;-81
2022/04/02 10:21:05;;;;;;;4.35;3.63;;;10.50;41.20;;;;;;5022915;28;20026;-80
2022/04/02 10:23:35;;;;;;;6.45;4.38;;;10.60;41.30;;;;;;5035898;28;20356;-79
2022/04/02 10:26:21;;;;;;;4.70;4.05;;;10.60;41.20;;;;;;5020092;28;20533;-79
2022/04/02 10:28:57;;;;;;;4.93;4.20;;;10.60;41.10;;;;;;5024589;28;20029;-80
2022/04/02 10:31:36;;;;;;;6.43;3.90;;;10.60;41.00;;;;;;5016307;28;20034;-80
2022/04/02 10:34:04;;;;;;;5.72;3.85;;;10.70;41.10;;;;;;5009389;28;20640;-80
2022/04/02 10:36:37;;;;;;;4.57;4.18;;;10.70;41.00;;;;;;5023155;28;20057;-80
2022/04/02 10:39:03;;;;;;;4.38;3.53;;;10.70;40.90;;;;;;5029255;28;20049;-79
2022/04/02 10:41:30;;;;;;;6.07;3.80;;;10.80;41.00;;;;;;5022907;28;20036;-80
2022/04/02 10:44:04;;;;;;;3.90;3.50;;;10.80;40.90;;;;;;5018766;28;20472;-80
2022/04/02 10:46:32;;;;;;;4.10;3.70;;;10.90;41.60;;;;;;5034094;28;20048;-80
2022/04/02 10:49:00;;;;;;;4.22;3.13;;;11.00;40.90;;;;;;5012523;28;20029;-77
2022/04/02 10:51:31;;;;;;;3.83;3.25;;;11.10;40.90;;;;;;5010795;28;20042;-81
2022/04/02 10:54:01;;;;;;;3.80;3.30;;;11.10;40.70;;;;;;5035022;28;20691;-78
2022/04/02 10:56:43;;;;;;;3.22;2.92;;;11.20;40.70;;;;;;5015629;28;20040;-78
2022/04/02 10:59:10;;;;;;;3.72;2.60;;;11.20;40.40;;;;;;5017445;28;20455;-80
2022/04/02 11:01:44;;;;;;;3.95;3.10;;;11.30;40.60;;;;;;5020285;28;20045;-85
2022/04/02 11:04:56;;;;;;;4.00;2.88;;;11.30;40.30;;;;;;5015318;28;20037;-79
2022/04/02 11:07:37;;;;;;;3.80;2.45;;;11.40;40.20;;;;;;4977804;28;20046;-80
2022/04/02 11:10:07;;;;;;;3.35;2.17;;;11.50;40.30;;;;;;5018493;28;20037;-79
2022/04/02 11:12:45;;;;;;;3.13;2.42;;;11.70;40.50;;;;;;5019428;28;20036;-80
2022/04/02 11:15:20;;;;;;;3.25;2.63;;;11.80;40.40;;;;;;5018367;28;20214;-80
2022/04/02 11:17:54;;;;;;;5.00;2.65;;;11.90;40.30;;;;;;5015096;28;20084;-80
2022/04/02 11:20:25;;;;;;;3.80;2.25;;;12.00;40.20;;;;;;5022862;28;20029;-76
2022/04/02 11:22:51;;;;;;;2.92;2.30;;;12.10;40.10;;;;;;5020463;28;20860;-78
2022/04/02 11:25:21;;;;;;;2.75;2.50;;;12.30;40.40;;;;;;5005298;28;20033;-79
2022/04/02 11:27:54;;;;;;;2.92;2.60;;;12.30;40.20;;;;;;5026821;28;20032;-80
2022/04/02 11:30:21;;;;;;;2.97;2.53;;;12.50;40.40;;;;;;5042919;28;20025;-81
2022/04/02 11:32:50;;;;;;;4.43;2.40;;;12.50;40.20;;;;;;5013491;28;20038;-80
2022/04/02 11:35:21;;;;;;;4.82;2.92;;;12.60;40.30;;;;;;5029159;28;20159;-80
2022/04/02 11:37:57;;;;;;;3.22;2.50;;;12.70;40.30;;;;;;5002600;28;20029;-79
2022/04/02 11:40:27;;;;;;;4.03;2.80;;;12.80;40.30;;;;;;4977396;28;20046;-80
2022/04/02 11:42:54;;;;;;;3.03;2.47;;;12.90;40.30;;;;;;5007018;28;20045;-78
2022/04/02 11:45:20;;;;;;;3.05;1.98;;;13.00;40.30;;;;;;5002446;28;20030;-80
2022/04/02 11:47:49;;;;;;;3.15;2.70;;;13.20;40.40;;;;;;4995998;28;20519;-79
2022/04/02 11:50:34;;;;;;;2.90;2.50;;;13.40;40.40;;;;;;4999449;28;20372;-78
2022/04/02 11:53:00;;;;;;;3.70;2.33;;;13.60;40.40;;;;;;4999964;28;20038;-79
2022/04/02 11:55:27;;;;;;;4.00;2.75;;;13.80;40.50;;;;;;4999097;28;20507;-80
2022/04/02 11:58:02;;;;;;;2.75;2.13;;;14.00;40.50;;;;;;4997774;28;20099;-79
2022/04/02 12:00:30;;;;;;;2.65;2.35;;;14.20;40.40;;;;;;4978916;28;20035;-76
2022/04/02 12:02:56;;;;;;;4.05;2.45;;;14.30;40.40;;;;;;5005385;28;20045;-80
2022/04/02 12:05:37;;;;;;;2.53;1.88;;;14.50;40.40;;;;;;5001662;28;20545;-77
2022/04/02 12:08:04;;;;;;;2.42;2.22;;;14.80;40.50;;;;;;4989149;28;20122;-79
2022/04/02 12:10:32;;;;;;;3.17;2.40;;;15.10;40.70;;;;;;4982186;28;20030;-81
2022/04/02 12:12:59;;;;;;;2.75;2.35;;;15.20;40.10;;;;;;5010105;28;20023;-78
2022/04/02 12:15:26;;;;;;;5.18;2.92;;;15.20;39.30;;;;;;5000819;28;20087;-77
2022/04/02 12:18:00;;;;;;;3.45;2.88;;;15.20;38.70;;;;;;5005027;28;20361;-76
2022/04/02 12:20:30;;;;;;;3.03;2.28;;;15.10;38.30;;;;;;5004645;28;20183;-77
2022/04/02 12:23:17;;;;;;;3.40;2.30;;;14.90;37.80;;;;;;5004992;28;20031;-79
2022/04/02 12:25:45;;;;;;;4.32;2.42;;;14.80;37.30;;;;;;5008535;28;20026;-81
2022/04/02 12:28:20;;;;;;;3.22;2.55;;;14.70;37.50;;;;;;4983695;28;20362;-81
2022/04/02 12:30:49;;;;;;;3.83;2.55;;;14.50;36.80;;;;;;4999941;28;20029;-80
2022/04/02 12:33:18;;;;;;;2.47;2.17;;;14.40;36.70;;;;;;4976839;28;20462;-81
2022/04/02 12:35:56;;;;;;;4.72;2.30;;;14.30;36.40;;;;;;5009038;28;20026;-80
2022/04/02 12:38:34;;;;;;;3.35;1.90;;;14.10;36.00;;;;;;5005079;28;20506;-80
2022/04/02 12:41:02;;;;;;;3.47;2.30;;;13.80;35.40;;;;;;5011288;28;20894;-77
2022/04/02 12:43:30;;;;;;;3.22;2.50;;;13.60;35.50;;;;;;5007535;28;20512;-78
2022/04/02 12:45:58;;;;;;;2.67;2.45;;;13.30;35.10;;;;;;5013200;28;20136;-77
2022/04/02 12:48:25;;;;;;;3.80;2.70;;;13.10;35.10;;;;;;5014749;28;20026;-78
2022/04/02 12:50:51;;;;;;;4.47;3.08;;;12.90;35.10;;;;;;4990752;28;20042;-78
2022/04/02 12:53:39;;;;;;;4.53;3.28;;;12.70;35.20;;;;;;4992850;28;20033;-79
2022/04/02 12:56:18;;;;;;;5.18;3.05;;;12.50;35.30;;;;;;4999931;28;20226;-79
2022/04/02 12:58:46;;;;;;;5.65;3.58;;;12.30;35.40;;;;;;5012876;28;20025;-77
2022/04/02 13:01:15;;;;;;;4.10;2.83;;;12.20;35.60;;;;;;5004428;28;20119;-79
2022/04/02 13:03:59;;;;;;;3.92;2.90;;;12.10;35.60;;;;;;5005631;28;20041;-75
2022/04/02 13:06:30;;;;;;;3.97;3.10;;;12.10;35.80;;;;;;5009206;28;20068;-76
2022/04/02 13:09:20;;;;;;;3.63;3.20;;;12.10;35.90;;;;;;4997318;28;20034;-77
2022/04/02 13:11:52;;;;;;;4.85;2.90;;;12.20;36.00;;;;;;5002847;28;20030;-78
2022/04/02 13:14:29;;;;;;;3.80;2.63;;;12.10;35.80;;;;;;5009860;28;20483;-77
2022/04/02 13:17:12;;;;;;;3.20;2.25;;;12.20;35.90;;;;;;5003391;28;20037;-78
2022/04/02 13:22:42;;;;;;;2.90;1.75;;;12.30;35.70;;;;;;5009918;28;20022;-79
2022/04/02 13:25:16;;;;;;;4.65;2.58;;;12.30;35.50;;;;;;4995983;28;20283;-76
2022/04/02 13:28:20;;;;;;;3.08;2.65;;;12.30;35.40;;;;;;5002460;28;20552;-77